^^
B2 Weather Station Historical Data
Daily Summary for January 4, 2016 Units:  English    Metric   Both
« Previous Day
Next Day »
Daily Weekly Monthly Yearly Custom
  High: Low: Average:
Temperature: 32.8 °F 19.7 °F 26.3 °F
Dew Point: 26.2 °F 15.8 °F 20.9 °F
Humidity: 86 % 66 % 80 %
Wind Speed: 18.4 mph 0.0 mph 7.8 mph
Wind Gust: 18.4 mph - -
Wind:- - South
Pressure: 30.59 in 30.32 in -
Precipitation: 0.00 in    
Historical Graphs
 
 
Tabular Data for January 4, 2016
Time Temperature Dew Point Pressure Wind Wind Speed Wind Gust Humidity Rainfall Rate (Hourly) solar Conditions
00:01 26.8 °F 21.8 °F 30.32 in NW 6.9 mph 6.9 mph 81 % 0.00 in 0.0 W/m2 OVC
00:06 26.8 °F 21.8 °F 30.32 in NW 8.1 mph 8.1 mph 81 % 0.00 in 0.0 W/m2 OVC
00:11 26.8 °F 21.8 °F 30.32 in North 6.0 mph 6.0 mph 81 % 0.00 in 0.0 W/m2 OVC
00:16 26.8 °F 21.8 °F 30.32 in NW 6.9 mph 6.9 mph 81 % 0.00 in 0.0 W/m2 OVC
00:21 26.8 °F 21.8 °F 30.32 in North 4.6 mph 4.6 mph 81 % 0.00 in 0.0 W/m2 OVC
00:26 26.8 °F 21.8 °F 30.32 in NW 7.0 mph 7.0 mph 81 % 0.00 in 0.0 W/m2 OVC
00:31 26.8 °F 21.8 °F 30.32 in North 7.0 mph 7.0 mph 81 % 0.00 in 0.0 W/m2 OVC
00:36 26.8 °F 22.0 °F 30.32 in North 8.1 mph 8.1 mph 82 % 0.00 in 0.0 W/m2 OVC
00:41 26.8 °F 21.8 °F 30.32 in North 6.9 mph 6.9 mph 81 % 0.00 in 0.0 W/m2 OVC
00:46 26.8 °F 21.8 °F 30.32 in WNW 5.8 mph 5.8 mph 81 % 0.00 in 0.0 W/m2 OVC
00:51 26.9 °F 21.8 °F 30.32 in North 11.5 mph 11.5 mph 81 % 0.00 in 0.0 W/m2 OVC
00:56 26.9 °F 21.8 °F 30.32 in North 6.9 mph 6.9 mph 81 % 0.00 in 0.0 W/m2 OVC
01:01 26.9 °F 21.8 °F 30.32 in North 8.1 mph 8.1 mph 81 % 0.00 in 0.0 W/m2 OVC
01:06 26.9 °F 21.8 °F 30.32 in North 7.0 mph 7.0 mph 81 % 0.00 in 0.0 W/m2 OVC
01:11 26.9 °F 21.8 °F 30.32 in NW 9.2 mph 9.2 mph 81 % 0.00 in 0.0 W/m2 OVC
01:16 26.9 °F 21.8 °F 30.32 in WNW 8.1 mph 8.1 mph 81 % 0.00 in 0.0 W/m2 OVC
01:21 26.9 °F 21.8 °F 30.32 in North 6.9 mph 6.9 mph 81 % 0.00 in 0.0 W/m2 OVC
01:26 26.9 °F 21.8 °F 30.32 in North 9.0 mph 9.0 mph 81 % 0.00 in 0.0 W/m2 OVC
01:31 26.9 °F 21.8 °F 30.33 in WNW 10.4 mph 10.4 mph 81 % 0.00 in 0.0 W/m2 OVC
01:36 26.9 °F 21.8 °F 30.33 in WNW 10.0 mph 10.0 mph 81 % 0.00 in 0.0 W/m2 OVC
01:41 26.8 °F 21.8 °F 30.33 in North 10.4 mph 10.4 mph 81 % 0.00 in 0.0 W/m2 OVC
01:46 26.7 °F 21.7 °F 30.33 in NW 6.9 mph 6.9 mph 81 % 0.00 in 0.0 W/m2 OVC
01:51 26.5 °F 21.5 °F 30.33 in WNW 9.2 mph 9.2 mph 81 % 0.00 in 0.0 W/m2 OVC
01:56 26.4 °F 21.4 °F 30.33 in North 11.5 mph 11.5 mph 81 % 0.00 in 0.0 W/m2 OVC
02:01 26.3 °F 21.3 °F 30.33 in WNW 9.2 mph 9.2 mph 81 % 0.00 in 0.0 W/m2 OVC
02:06 26.1 °F 21.1 °F 30.34 in NW 10.4 mph 10.4 mph 81 % 0.00 in 0.0 W/m2 OVC
02:11 25.8 °F 20.8 °F 30.34 in NW 6.9 mph 6.9 mph 81 % 0.00 in 0.0 W/m2 OVC
02:16 25.5 °F 20.5 °F 30.34 in NW 10.4 mph 10.4 mph 81 % 0.00 in 0.0 W/m2 OVC
02:21 25.2 °F 20.2 °F 30.35 in North 9.2 mph 9.2 mph 81 % 0.00 in 0.0 W/m2 OVC
02:26 25.0 °F 20.3 °F 30.35 in WNW 9.2 mph 9.2 mph 82 % 0.00 in 0.0 W/m2 OVC
02:31 24.8 °F 20.1 °F 30.35 in North 11.5 mph 11.5 mph 82 % 0.00 in 0.0 W/m2 BKN
02:36 24.7 °F 19.7 °F 30.35 in WNW 10.4 mph 10.4 mph 81 % 0.00 in 0.0 W/m2 BKN
02:41 24.5 °F 19.8 °F 30.35 in NW 9.2 mph 9.2 mph 82 % 0.00 in 0.0 W/m2 BKN
02:46 24.4 °F 19.4 °F 30.35 in NNW 8.1 mph 8.1 mph 81 % 0.00 in 0.0 W/m2 BKN
02:51 24.3 °F 19.3 °F 30.35 in WNW 6.9 mph 6.9 mph 81 % 0.00 in 0.0 W/m2 BKN
02:56 24.1 °F 19.1 °F 30.35 in WNW 8.1 mph 8.1 mph 81 % 0.00 in 0.0 W/m2 BKN
03:01 23.9 °F 18.9 °F 30.35 in NW 5.0 mph 5.0 mph 81 % 0.00 in 0.0 W/m2 SCT
03:06 23.8 °F 19.1 °F 30.35 in NW 5.8 mph 5.8 mph 82 % 0.00 in 0.0 W/m2 SCT
03:11 23.6 °F 18.9 °F 30.35 in NW 5.8 mph 5.8 mph 82 % 0.00 in 0.0 W/m2 SCT
03:16 23.5 °F 18.8 °F 30.35 in WNW 8.0 mph 8.0 mph 82 % 0.00 in 0.0 W/m2 CLR
03:21 23.3 °F 18.6 °F 30.35 in NW 4.6 mph 4.6 mph 82 % 0.00 in 0.0 W/m2 CLR
03:26 23.3 °F 18.6 °F 30.35 in WNW 4.6 mph 4.6 mph 82 % 0.00 in 0.0 W/m2 CLR
03:31 23.2 °F 18.5 °F 30.35 in WNW 4.6 mph 4.6 mph 82 % 0.00 in 0.0 W/m2 CLR
03:36 23.1 °F 18.4 °F 30.36 in NW 6.9 mph 6.9 mph 82 % 0.00 in 0.0 W/m2 CLR
03:41 22.9 °F 18.5 °F 30.35 in WNW 4.6 mph 4.6 mph 83 % 0.00 in 0.0 W/m2 CLR
03:46 23.0 °F 18.6 °F 30.35 in WNW 4.6 mph 4.6 mph 83 % 0.00 in 0.0 W/m2 CLR
03:51 22.9 °F 18.5 °F 30.36 in WNW 6.9 mph 6.9 mph 83 % 0.00 in 0.0 W/m2 CLR
03:56 22.9 °F 18.5 °F 30.36 in NW 8.1 mph 8.1 mph 83 % 0.00 in 0.0 W/m2 CLR
04:01 22.8 °F 18.7 °F 30.35 in WNW 6.9 mph 6.9 mph 84 % 0.00 in 0.0 W/m2 CLR
04:06 22.8 °F 18.7 °F 30.35 in WNW 7.0 mph 7.0 mph 84 % 0.00 in 0.0 W/m2 CLR
04:11 22.7 °F 18.6 °F 30.35 in North 7.0 mph 7.0 mph 84 % 0.00 in 0.0 W/m2 CLR
04:16 22.7 °F 18.6 °F 30.35 in North 11.5 mph 11.5 mph 84 % 0.00 in 0.0 W/m2 CLR
04:21 22.7 °F 18.6 °F 30.35 in North 11.5 mph 11.5 mph 84 % 0.00 in 0.0 W/m2 CLR
04:26 22.7 °F 18.6 °F 30.35 in WNW 10.4 mph 10.4 mph 84 % 0.00 in 0.0 W/m2 CLR
04:31 22.6 °F 18.5 °F 30.35 in WNW 8.1 mph 8.1 mph 84 % 0.00 in 0.0 W/m2 CLR
04:36 22.6 °F 18.5 °F 30.35 in North 9.2 mph 9.2 mph 84 % 0.00 in 0.0 W/m2 CLR
04:41 22.5 °F 18.4 °F 30.36 in WNW 5.8 mph 5.8 mph 84 % 0.00 in 0.0 W/m2 CLR
04:46 22.4 °F 18.3 °F 30.36 in WNW 9.2 mph 9.2 mph 84 % 0.00 in 0.0 W/m2 CLR
04:51 22.4 °F 18.3 °F 30.36 in WNW 9.2 mph 9.2 mph 84 % 0.00 in 0.0 W/m2 CLR
04:56 22.3 °F 18.2 °F 30.36 in WNW 6.9 mph 6.9 mph 84 % 0.00 in 0.0 W/m2 CLR
05:01 22.2 °F 18.1 °F 30.36 in WNW 10.4 mph 10.4 mph 84 % 0.00 in 0.0 W/m2 CLR
05:06 22.1 °F 18.0 °F 30.36 in North 9.2 mph 9.2 mph 84 % 0.00 in 0.0 W/m2 CLR
05:11 22.1 °F 18.3 °F 30.37 in NW 10.4 mph 10.4 mph 85 % 0.00 in 0.0 W/m2 CLR
05:16 22.1 °F 18.3 °F 30.37 in WNW 8.1 mph 8.1 mph 85 % 0.00 in 0.0 W/m2 CLR
05:21 22.1 °F 18.0 °F 30.37 in WNW 6.9 mph 6.9 mph 84 % 0.00 in 0.0 W/m2 CLR
05:26 22.0 °F 18.2 °F 30.37 in WNW 8.1 mph 8.1 mph 85 % 0.00 in 0.0 W/m2 CLR
05:31 22.0 °F 18.2 °F 30.38 in NW 5.8 mph 5.8 mph 85 % 0.00 in 0.0 W/m2 CLR
05:36 22.0 °F 18.2 °F 30.38 in WNW 9.2 mph 9.2 mph 85 % 0.00 in 0.0 W/m2 CLR
05:41 22.0 °F 18.2 °F 30.38 in NW 8.1 mph 8.1 mph 85 % 0.00 in 0.0 W/m2 CLR
05:46 22.0 °F 18.2 °F 30.38 in WNW 8.1 mph 8.1 mph 85 % 0.00 in 0.0 W/m2 CLR
05:51 22.1 °F 18.3 °F 30.38 in WNW 8.1 mph 8.1 mph 85 % 0.00 in 0.0 W/m2 CLR
05:56 22.0 °F 18.2 °F 30.39 in WNW 8.1 mph 8.1 mph 85 % 0.00 in 0.0 W/m2 CLR
06:01 21.9 °F 18.1 °F 30.39 in North 8.1 mph 8.1 mph 85 % 0.00 in 0.0 W/m2 CLR
06:06 21.8 °F 18.0 °F 30.39 in NW 8.1 mph 8.1 mph 85 % 0.00 in 0.0 W/m2 CLR
06:11 21.8 °F 18.0 °F 30.39 in WNW 9.2 mph 9.2 mph 85 % 0.00 in 0.0 W/m2 CLR
06:16 21.8 °F 18.3 °F 30.40 in WNW 8.1 mph 8.1 mph 86 % 0.00 in 0.0 W/m2 CLR
06:21 21.9 °F 18.4 °F 30.40 in WNW 5.8 mph 5.8 mph 86 % 0.00 in 0.0 W/m2 CLR
06:26 21.9 °F 18.1 °F 30.40 in North 8.1 mph 8.1 mph 85 % 0.00 in 0.0 W/m2 CLR
06:41 22.1 °F 18.3 °F 30.41 in WNW 9.2 mph 9.2 mph 85 % 0.00 in 0.0 W/m2 CLR
06:46 22.0 °F 18.2 °F 30.41 in WNW 4.6 mph 4.6 mph 85 % 0.00 in 0.0 W/m2 CLR
06:51 21.9 °F 18.1 °F 30.41 in WNW 6.9 mph 6.9 mph 85 % 0.00 in 0.0 W/m2 CLR
06:56 22.0 °F 18.2 °F 30.41 in North 8.1 mph 8.1 mph 85 % 0.00 in 0.0 W/m2 CLR
07:01 22.1 °F 18.6 °F 30.41 in NW 9.2 mph 9.2 mph 86 % 0.00 in 0.0 W/m2 CLR
07:06 22.1 °F 18.3 °F 30.41 in North 9.0 mph 9.0 mph 85 % 0.00 in 0.0 W/m2 CLR
07:11 22.1 °F 18.6 °F 30.41 in North 10.4 mph 10.4 mph 86 % 0.00 in 0.0 W/m2 CLR
07:16 22.1 °F 18.3 °F 30.41 in NNW 9.2 mph 9.2 mph 85 % 0.00 in 0.0 W/m2 CLR
07:21 22.0 °F 18.2 °F 30.42 in NW 6.9 mph 6.9 mph 85 % 0.00 in 5.0 W/m2 CLR
07:26 21.8 °F 18.3 °F 30.42 in North 10.4 mph 10.4 mph 86 % 0.00 in 7.0 W/m2 CLR
07:31 21.9 °F 18.4 °F 30.42 in NW 8.1 mph 8.1 mph 86 % 0.00 in 9.0 W/m2 CLR
07:36 22.0 °F 18.5 °F 30.42 in North 8.1 mph 8.1 mph 86 % 0.00 in 12.0 W/m2 CLR
07:41 22.2 °F 18.7 °F 30.42 in North 6.9 mph 6.9 mph 86 % 0.00 in 16.0 W/m2 CLR
07:46 22.4 °F 18.8 °F 30.42 in North 6.0 mph 6.0 mph 86 % 0.00 in 21.0 W/m2 CLR
07:51 22.5 °F 18.9 °F 30.43 in NW 5.8 mph 5.8 mph 86 % 0.00 in 32.0 W/m2 CLR
07:56 22.6 °F 18.8 °F 30.43 in North 6.9 mph 6.9 mph 85 % 0.00 in 42.0 W/m2 CLR
08:01 22.9 °F 19.3 °F 30.43 in North 7.0 mph 7.0 mph 86 % 0.00 in 53.0 W/m2 CLR
08:06 23.2 °F 19.4 °F 30.44 in NW 5.8 mph 5.8 mph 85 % 0.00 in 67.0 W/m2 CLR
08:11 23.5 °F 19.7 °F 30.44 in North 6.0 mph 6.0 mph 85 % 0.00 in 81.0 W/m2 CLR
08:16 23.8 °F 19.9 °F 30.44 in North 5.8 mph 5.8 mph 85 % 0.00 in 91.0 W/m2 CLR
08:21 24.1 °F 20.2 °F 30.44 in NW 5.8 mph 5.8 mph 85 % 0.00 in 107.0 W/m2 CLR
08:26 24.4 °F 20.5 °F 30.45 in NW 6.9 mph 6.9 mph 85 % 0.00 in 123.0 W/m2 CLR
08:31 24.9 °F 21.0 °F 30.45 in NW 6.9 mph 6.9 mph 85 % 0.00 in 139.0 W/m2 CLR
08:36 25.6 °F 21.4 °F 30.45 in NNW 10.4 mph 10.4 mph 84 % 0.00 in 158.0 W/m2 CLR
08:41 26.2 °F 21.7 °F 30.45 in NW 11.5 mph 11.5 mph 83 % 0.00 in 174.0 W/m2 CLR
08:46 26.7 °F 21.9 °F 30.45 in NNW 9.2 mph 9.2 mph 82 % 0.00 in 190.0 W/m2 CLR
08:51 27.0 °F 22.2 °F 30.46 in NNW 9.2 mph 9.2 mph 82 % 0.00 in 204.0 W/m2 CLR
08:56 27.2 °F 22.1 °F 30.46 in NNW 13.0 mph 13.0 mph 81 % 0.00 in 220.0 W/m2 CLR
09:01 27.4 °F 22.0 °F 30.46 in NNW 11.5 mph 11.5 mph 80 % 0.00 in 236.0 W/m2 CLR
09:06 27.6 °F 22.2 °F 30.47 in North 15.0 mph 15.0 mph 80 % 0.00 in 250.0 W/m2 CLR
09:11 27.8 °F 22.4 °F 30.47 in NNW 15.0 mph 15.0 mph 80 % 0.00 in 264.0 W/m2 CLR
09:16 28.2 °F 22.5 °F 30.47 in North 13.0 mph 13.0 mph 79 % 0.00 in 276.0 W/m2 CLR
09:26 28.6 °F 22.9 °F 30.47 in NNW 15.0 mph 15.0 mph 79 % 0.00 in 297.0 W/m2 CLR
09:31 28.5 °F 22.5 °F 30.47 in NNW 12.7 mph 12.7 mph 78 % 0.00 in 309.0 W/m2 CLR
09:36 28.7 °F 22.7 °F 30.47 in North 11.5 mph 11.5 mph 78 % 0.00 in 318.0 W/m2 CLR
09:41 28.9 °F 22.6 °F 30.47 in NNW 12.7 mph 12.7 mph 77 % 0.00 in 329.0 W/m2 CLR
09:46 29.1 °F 22.8 °F 30.48 in NNW 11.5 mph 11.5 mph 77 % 0.00 in 338.0 W/m2 CLR
09:51 29.3 °F 23.0 °F 30.47 in NW 9.2 mph 9.2 mph 77 % 0.00 in 348.0 W/m2 CLR
09:56 29.7 °F 23.1 °F 30.48 in NNW 10.4 mph 10.4 mph 76 % 0.00 in 355.0 W/m2 CLR
10:01 29.7 °F 22.7 °F 30.48 in NNW 12.7 mph 12.7 mph 75 % 0.00 in 364.0 W/m2 CLR
10:06 29.9 °F 22.9 °F 30.48 in NNW 11.0 mph 11.0 mph 75 % 0.00 in 371.0 W/m2 CLR
10:11 30.2 °F 23.2 °F 30.48 in NNW 15.0 mph 15.0 mph 75 % 0.00 in 381.0 W/m2 CLR
10:16 30.2 °F 22.9 °F 30.48 in NNW 16.1 mph 16.1 mph 74 % 0.00 in 387.0 W/m2 CLR
10:21 30.3 °F 23.3 °F 30.48 in North 11.5 mph 11.5 mph 75 % 0.00 in 396.0 W/m2 CLR
10:26 30.5 °F 23.2 °F 30.48 in NNE 12.7 mph 12.7 mph 74 % 0.00 in 401.0 W/m2 CLR
10:31 30.8 °F 23.5 °F 30.48 in North 11.5 mph 11.5 mph 74 % 0.00 in 408.0 W/m2 CLR
10:36 31.0 °F 23.4 °F 30.48 in NNW 11.5 mph 11.5 mph 73 % 0.00 in 415.0 W/m2 CLR
10:41 31.2 °F 23.5 °F 30.48 in North 12.7 mph 12.7 mph 73 % 0.00 in 429.0 W/m2 CLR
10:46 31.6 °F 23.9 °F 30.49 in NNW 11.5 mph 11.5 mph 73 % 0.00 in 290.0 W/m2 CLR
10:51 31.3 °F 23.0 °F 30.49 in NNE 12.0 mph 12.0 mph 71 % 0.00 in 148.0 W/m2 CLR
10:56 30.6 °F 23.0 °F 30.49 in NW 11.5 mph 11.5 mph 73 % 0.00 in 109.0 W/m2 CLR
11:01 30.3 °F 23.0 °F 30.49 in North 16.1 mph 16.1 mph 74 % 0.00 in 130.0 W/m2 CLR
11:06 30.3 °F 23.6 °F 30.49 in NNW 12.7 mph 12.7 mph 76 % 0.00 in 141.0 W/m2 CLR
11:11 30.2 °F 23.9 °F 30.49 in North 13.8 mph 13.8 mph 77 % 0.00 in 113.0 W/m2 CLR
11:16 30.1 °F 24.1 °F 30.49 in NNW 10.4 mph 10.4 mph 78 % 0.00 in 127.0 W/m2 CLR
11:21 29.8 °F 23.8 °F 30.49 in NNW 12.7 mph 12.7 mph 78 % 0.00 in 135.0 W/m2 CLR
11:26 29.8 °F 24.1 °F 30.49 in North 12.7 mph 12.7 mph 79 % 0.00 in 127.0 W/m2 CLR
11:31 29.8 °F 24.4 °F 30.49 in NNW 10.4 mph 10.4 mph 80 % 0.00 in 155.0 W/m2 BKN
11:36 29.6 °F 24.5 °F 30.49 in North 11.5 mph 11.5 mph 81 % 0.00 in 155.0 W/m2 BKN
11:41 29.8 °F 25.0 °F 30.49 in NNW 12.0 mph 12.0 mph 82 % 0.00 in 104.0 W/m2 BKN
11:46 29.7 °F 25.5 °F 30.49 in North 11.5 mph 11.5 mph 84 % 0.00 in 167.0 W/m2 OVC
11:51 29.8 °F 25.6 °F 30.49 in North 11.5 mph 11.5 mph 84 % 0.00 in 163.0 W/m2 OVC
11:56 29.8 °F 25.8 °F 30.49 in North 11.5 mph 11.5 mph 85 % 0.00 in 171.0 W/m2 OVC
12:01 29.9 °F 26.2 °F 30.49 in NNE 10.4 mph 10.4 mph 86 % 0.00 in 178.0 W/m2 OVC
12:06 29.9 °F 25.9 °F 30.49 in North 10.4 mph 10.4 mph 85 % 0.00 in 167.0 W/m2 OVC
12:11 30.1 °F 26.1 °F 30.49 in NNE 10.4 mph 10.4 mph 85 % 0.00 in 174.0 W/m2 OVC
12:16 30.1 °F 25.8 °F 30.49 in NE 11.5 mph 11.5 mph 84 % 0.00 in 102.0 W/m2 OVC
12:21 29.7 °F 25.5 °F 30.48 in NNE 12.7 mph 12.7 mph 84 % 0.00 in 83.0 W/m2 OVC
12:26 29.5 °F 25.3 °F 30.48 in NE 16.1 mph 16.1 mph 84 % 0.00 in 111.0 W/m2 OVC
12:31 29.6 °F 24.2 °F 30.48 in NNE 12.7 mph 12.7 mph 80 % 0.00 in 144.0 W/m2 -SN
12:36 30.0 °F 23.4 °F 30.48 in NNE 18.4 mph 18.4 mph 76 % 0.00 in 123.0 W/m2 -SN
12:41 30.1 °F 22.8 °F 30.48 in North 11.5 mph 11.5 mph 74 % 0.00 in 135.0 W/m2 -SN
12:46 30.0 °F 22.1 °F 30.48 in NNE 12.7 mph 12.7 mph 72 % 0.00 in 232.0 W/m2 -SN
12:51 31.1 °F 23.5 °F 30.48 in NNE 13.8 mph 13.8 mph 73 % 0.00 in 543.0 W/m2 -SN
12:56 31.4 °F 22.7 °F 30.48 in NNE 14.0 mph 14.0 mph 70 % 0.00 in 120.0 W/m2 -SN
13:01 31.6 °F 23.3 °F 30.48 in NE 13.8 mph 13.8 mph 71 % 0.00 in 594.0 W/m2 -SN
13:06 32.1 °F 23.8 °F 30.48 in NE 12.0 mph 12.0 mph 71 % 0.00 in 178.0 W/m2 -SN
13:11 31.4 °F 22.4 °F 30.48 in NNE 15.0 mph 15.0 mph 69 % 0.00 in 98.0 W/m2 -SN
13:16 31.0 °F 22.4 °F 30.47 in NNE 10.4 mph 10.4 mph 70 % 0.00 in 292.0 W/m2 -SN
13:21 31.5 °F 21.4 °F 30.47 in NNE 18.0 mph 18.0 mph 66 % 0.00 in 132.0 W/m2 -SN
13:26 30.8 °F 21.5 °F 30.48 in NE 15.0 mph 15.0 mph 68 % 0.00 in 63.0 W/m2 -SN
13:31 30.1 °F 21.5 °F 30.48 in NE 11.5 mph 11.5 mph 70 % 0.00 in 91.0 W/m2 -SN
13:36 30.5 °F 22.9 °F 30.48 in NE 11.5 mph 11.5 mph 73 % 0.00 in 424.0 W/m2 -SN
13:41 31.7 °F 23.4 °F 30.48 in NE 12.7 mph 12.7 mph 71 % 0.00 in 517.0 W/m2 BKN
13:46 32.8 °F 23.0 °F 30.48 in NE 12.7 mph 12.7 mph 67 % 0.00 in 190.0 W/m2 BKN
13:51 32.1 °F 22.7 °F 30.48 in NE 15.0 mph 15.0 mph 68 % 0.00 in 100.0 W/m2 BKN
13:56 31.0 °F 22.4 °F 30.49 in NNE 11.5 mph 11.5 mph 70 % 0.00 in 81.0 W/m2 BKN
14:01 31.2 °F 23.2 °F 30.49 in NE 12.7 mph 12.7 mph 72 % 0.00 in 455.0 W/m2 BKN
14:06 31.8 °F 23.5 °F 30.49 in NE 12.7 mph 12.7 mph 71 % 0.00 in 179.0 W/m2 BKN
14:11 31.2 °F 23.2 °F 30.49 in NNE 13.8 mph 13.8 mph 72 % 0.00 in 118.0 W/m2 BKN
14:16 30.5 °F 23.2 °F 30.49 in NNE 11.5 mph 11.5 mph 74 % 0.00 in 72.0 W/m2 BKN
14:21 29.9 °F 23.6 °F 30.49 in NE 11.5 mph 11.5 mph 77 % 0.00 in 322.0 W/m2 BKN
14:26 30.5 °F 24.5 °F 30.49 in NE 11.5 mph 11.5 mph 78 % 0.00 in 308.0 W/m2 BKN
14:31 31.0 °F 24.3 °F 30.49 in NE 14.0 mph 14.0 mph 76 % 0.00 in 304.0 W/m2 BKN
14:36 31.3 °F 24.0 °F 30.50 in NE 11.5 mph 11.5 mph 74 % 0.00 in 316.0 W/m2 BKN
14:41 31.6 °F 23.9 °F 30.49 in NE 11.5 mph 11.5 mph 73 % 0.00 in 339.0 W/m2 BKN
14:46 31.8 °F 24.1 °F 30.50 in NE 9.2 mph 9.2 mph 73 % 0.00 in 281.0 W/m2 BKN
14:51 31.6 °F 23.6 °F 30.50 in NE 11.5 mph 11.5 mph 72 % 0.00 in 185.0 W/m2 BKN
14:56 31.5 °F 23.5 °F 30.50 in NE 10.4 mph 10.4 mph 72 % 0.00 in 120.0 W/m2 BKN
15:01 30.9 °F 22.9 °F 30.50 in NE 10.4 mph 10.4 mph 72 % 0.00 in 93.0 W/m2 BKN
15:06 30.5 °F 22.9 °F 30.50 in NE 11.5 mph 11.5 mph 73 % 0.00 in 95.0 W/m2 BKN
15:11 30.2 °F 22.9 °F 30.51 in NNE 10.0 mph 10.0 mph 74 % 0.00 in 60.0 W/m2 BKN
15:16 29.9 °F 22.6 °F 30.51 in NE 10.4 mph 10.4 mph 74 % 0.00 in 47.0 W/m2 OVC
15:21 29.7 °F 22.7 °F 30.51 in NNE 10.4 mph 10.4 mph 75 % 0.00 in 53.0 W/m2 OVC
15:26 29.6 °F 23.3 °F 30.51 in NNE 6.9 mph 6.9 mph 77 % 0.00 in 47.0 W/m2 OVC
15:31 29.5 °F 22.9 °F 30.51 in NE 8.1 mph 8.1 mph 76 % 0.00 in 46.0 W/m2 BKN
15:36 29.5 °F 23.2 °F 30.52 in NE 8.1 mph 8.1 mph 77 % 0.00 in 30.0 W/m2 BKN
15:41 29.4 °F 22.8 °F 30.52 in NE 11.5 mph 11.5 mph 76 % 0.00 in 35.0 W/m2 BKN
15:46 29.3 °F 23.0 °F 30.52 in NE 9.2 mph 9.2 mph 77 % 0.00 in 30.0 W/m2 BKN
15:51 29.3 °F 23.0 °F 30.52 in NE 8.1 mph 8.1 mph 77 % 0.00 in 21.0 W/m2 BKN
15:56 29.2 °F 22.6 °F 30.53 in NE 6.0 mph 6.0 mph 76 % 0.00 in 19.0 W/m2 BKN
16:01 29.2 °F 22.6 °F 30.53 in NE 5.8 mph 5.8 mph 76 % 0.00 in 14.0 W/m2 OVC
16:06 29.2 °F 22.6 °F 30.53 in NE 6.9 mph 6.9 mph 76 % 0.00 in 11.0 W/m2 OVC
16:11 29.2 °F 22.6 °F 30.54 in NE 5.8 mph 5.8 mph 76 % 0.00 in 9.0 W/m2 OVC
16:16 29.2 °F 22.9 °F 30.54 in NE 3.5 mph 3.5 mph 77 % 0.00 in 5.0 W/m2 OVC
16:21 29.1 °F 22.5 °F 30.54 in NE 5.8 mph 5.8 mph 76 % 0.00 in 0.0 W/m2 OVC
16:26 29.0 °F 22.4 °F 30.54 in NE 3.5 mph 3.5 mph 76 % 0.00 in 0.0 W/m2 OVC
16:31 28.9 °F 22.3 °F 30.55 in NE 2.3 mph 2.3 mph 76 % 0.00 in 0.0 W/m2 OVC
16:36 28.9 °F 22.3 °F 30.55 in NE 4.6 mph 4.6 mph 76 % 0.00 in 0.0 W/m2 OVC
16:41 28.9 °F 22.3 °F 30.54 in NNE 8.1 mph 8.1 mph 76 % 0.00 in 0.0 W/m2 OVC
16:46 29.0 °F 22.1 °F 30.55 in North 8.1 mph 8.1 mph 75 % 0.00 in 0.0 W/m2 OVC
16:51 29.0 °F 21.1 °F 30.55 in NNE 6.0 mph 6.0 mph 72 % 0.00 in 0.0 W/m2 OVC
16:56 29.0 °F 21.4 °F 30.55 in NNE 9.2 mph 9.2 mph 73 % 0.00 in 0.0 W/m2 OVC
17:01 29.0 °F 21.4 °F 30.55 in North 10.4 mph 10.4 mph 73 % 0.00 in 0.0 W/m2 OVC
17:06 29.0 °F 21.7 °F 30.55 in North 11.5 mph 11.5 mph 74 % 0.00 in 0.0 W/m2 OVC
17:11 28.9 °F 21.7 °F 30.56 in North 11.5 mph 11.5 mph 74 % 0.00 in 0.0 W/m2 OVC
17:16 28.9 °F 22.0 °F 30.55 in NNE 10.4 mph 10.4 mph 75 % 0.00 in 0.0 W/m2 OVC
17:21 28.8 °F 22.2 °F 30.56 in NE 9.2 mph 9.2 mph 76 % 0.00 in 0.0 W/m2 OVC
17:26 28.6 °F 22.3 °F 30.56 in NE 6.9 mph 6.9 mph 77 % 0.00 in 0.0 W/m2 OVC
17:31 28.5 °F 22.5 °F 30.55 in NE 5.8 mph 5.8 mph 78 % 0.00 in 0.0 W/m2 OVC
17:36 28.4 °F 22.4 °F 30.55 in NE 5.8 mph 5.8 mph 78 % 0.00 in 0.0 W/m2 OVC
17:41 28.3 °F 22.3 °F 30.55 in NE 6.0 mph 6.0 mph 78 % 0.00 in 0.0 W/m2 OVC
17:46 28.3 °F 21.7 °F 30.56 in NE 6.0 mph 6.0 mph 76 % 0.00 in 0.0 W/m2 OVC
17:51 28.3 °F 21.7 °F 30.56 in NE 3.5 mph 3.5 mph 76 % 0.00 in 0.0 W/m2 OVC
17:56 28.3 °F 21.4 °F 30.56 in NE 5.8 mph 5.8 mph 75 % 0.00 in 0.0 W/m2 OVC
18:01 28.4 °F 21.5 °F 30.56 in NE 3.5 mph 3.5 mph 75 % 0.00 in 0.0 W/m2 OVC
18:06 28.4 °F 21.8 °F 30.56 in NNE 5.8 mph 5.8 mph 76 % 0.00 in 0.0 W/m2 OVC
18:11 28.4 °F 21.8 °F 30.56 in NNE 4.6 mph 4.6 mph 76 % 0.00 in 0.0 W/m2 OVC
18:16 28.4 °F 22.4 °F 30.56 in NE 6.0 mph 6.0 mph 78 % 0.00 in 0.0 W/m2 OVC
18:21 28.3 °F 22.3 °F 30.56 in NE 5.8 mph 5.8 mph 78 % 0.00 in 0.0 W/m2 OVC
18:26 28.1 °F 22.4 °F 30.56 in NE 7.0 mph 7.0 mph 79 % 0.00 in 0.0 W/m2 OVC
18:31 28.0 °F 22.3 °F 30.56 in NE 9.2 mph 9.2 mph 79 % 0.00 in 0.0 W/m2 OVC
18:36 27.9 °F 22.5 °F 30.56 in NE 5.8 mph 5.8 mph 80 % 0.00 in 0.0 W/m2 OVC
18:41 27.8 °F 22.4 °F 30.56 in NE 5.8 mph 5.8 mph 80 % 0.00 in 0.0 W/m2 OVC
18:46 27.8 °F 22.4 °F 30.57 in NE 5.8 mph 5.8 mph 80 % 0.00 in 0.0 W/m2 OVC
18:51 27.7 °F 22.3 °F 30.56 in NE 7.0 mph 7.0 mph 80 % 0.00 in 0.0 W/m2 OVC
18:56 27.6 °F 22.2 °F 30.56 in NE 6.0 mph 6.0 mph 80 % 0.00 in 0.0 W/m2 OVC
19:01 27.5 °F 22.4 °F 30.57 in NE 6.9 mph 6.9 mph 81 % 0.00 in 0.0 W/m2 OVC
19:06 27.4 °F 22.3 °F 30.57 in NE 4.6 mph 4.6 mph 81 % 0.00 in 0.0 W/m2 OVC
19:11 27.4 °F 22.3 °F 30.57 in NE 5.8 mph 5.8 mph 81 % 0.00 in 0.0 W/m2 OVC
19:16 27.3 °F 22.2 °F 30.57 in NE 5.8 mph 5.8 mph 81 % 0.00 in 0.0 W/m2 OVC
19:21 27.3 °F 22.2 °F 30.57 in NE 4.6 mph 4.6 mph 81 % 0.00 in 0.0 W/m2 OVC
19:26 27.3 °F 21.9 °F 30.57 in NE 4.6 mph 4.6 mph 80 % 0.00 in 0.0 W/m2 OVC
19:31 27.3 °F 21.9 °F 30.57 in NE 5.0 mph 5.0 mph 80 % 0.00 in 0.0 W/m2 OVC
19:36 27.3 °F 21.9 °F 30.57 in NE 3.5 mph 3.5 mph 80 % 0.00 in 0.0 W/m2 OVC
19:41 27.1 °F 21.7 °F 30.57 in NE 4.6 mph 4.6 mph 80 % 0.00 in 0.0 W/m2 OVC
19:46 27.0 °F 21.7 °F 30.57 in NE 5.8 mph 5.8 mph 80 % 0.00 in 0.0 W/m2 OVC
19:51 27.0 °F 21.7 °F 30.57 in NE 6.0 mph 6.0 mph 80 % 0.00 in 0.0 W/m2 OVC
19:56 27.0 °F 21.9 °F 30.57 in NE 3.5 mph 3.5 mph 81 % 0.00 in 0.0 W/m2 OVC
20:01 26.9 °F 21.8 °F 30.57 in NE 4.6 mph 4.6 mph 81 % 0.00 in 0.0 W/m2 OVC
20:06 26.8 °F 21.5 °F 30.57 in NE 4.6 mph 4.6 mph 80 % 0.00 in 0.0 W/m2 OVC
20:11 26.6 °F 21.3 °F 30.57 in NE 2.3 mph 2.3 mph 80 % 0.00 in 0.0 W/m2 OVC
20:16 26.4 °F 21.4 °F 30.57 in NE 3.5 mph 3.5 mph 81 % 0.00 in 0.0 W/m2 OVC
20:21 26.1 °F 21.4 °F 30.57 in NE 3.5 mph 3.5 mph 82 % 0.00 in 0.0 W/m2 OVC
20:26 25.9 °F 21.2 °F 30.58 in NE 3.5 mph 3.5 mph 82 % 0.00 in 0.0 W/m2 OVC
20:31 25.7 °F 21.0 °F 30.58 in Calm     82 % 0.00 in 0.0 W/m2 OVC
20:36 25.6 °F 20.9 °F 30.58 in NE 2.3 mph   82 % 0.00 in 0.0 W/m2 OVC
20:41 25.5 °F 20.8 °F 30.58 in NE 3.5 mph 3.5 mph 82 % 0.00 in 0.0 W/m2 OVC
20:46 25.3 °F 20.6 °F 30.58 in NE 2.3 mph 2.3 mph 82 % 0.00 in 0.0 W/m2 OVC
20:51 25.1 °F 20.4 °F 30.58 in NE 2.3 mph 2.3 mph 82 % 0.00 in 0.0 W/m2 OVC
20:56 24.9 °F 20.2 °F 30.58 in NE 2.3 mph 2.3 mph 82 % 0.00 in 0.0 W/m2 OVC
21:01 24.7 °F 20.0 °F 30.58 in NE 1.2 mph 1.2 mph 82 % 0.00 in 0.0 W/m2 OVC
21:06 24.5 °F 19.8 °F 30.58 in Calm     82 % 0.00 in 0.0 W/m2 OVC
21:11 24.3 °F 19.6 °F 30.58 in Calm     82 % 0.00 in 0.0 W/m2 OVC
21:16 24.2 °F 19.5 °F 30.58 in NE 1.2 mph 1.2 mph 82 % 0.00 in 0.0 W/m2 OVC
21:21 23.9 °F 19.2 °F 30.58 in NE 2.3 mph 2.3 mph 82 % 0.00 in 0.0 W/m2 OVC
21:26 23.6 °F 18.9 °F 30.58 in NE 3.5 mph 3.5 mph 82 % 0.00 in 0.0 W/m2 OVC
21:31 23.3 °F 18.6 °F 30.58 in Calm     82 % 0.00 in 0.0 W/m2 OVC
21:36 23.1 °F 18.7 °F 30.58 in Calm     83 % 0.00 in 0.0 W/m2 OVC
21:41 22.9 °F 18.5 °F 30.59 in Calm     83 % 0.00 in 0.0 W/m2 OVC
21:46 22.7 °F 18.3 °F 30.59 in Calm     83 % 0.00 in 0.0 W/m2 BKN
21:51 22.7 °F 18.3 °F 30.59 in Calm     83 % 0.00 in 0.0 W/m2 BKN
21:56 22.6 °F 18.2 °F 30.59 in Calm     83 % 0.00 in 0.0 W/m2 BKN
22:01 22.6 °F 18.2 °F 30.59 in Calm     83 % 0.00 in 0.0 W/m2 BKN
22:06 22.4 °F 18.0 °F 30.59 in Calm     83 % 0.00 in 0.0 W/m2 BKN
22:11 22.3 °F 17.9 °F 30.59 in Calm     83 % 0.00 in 0.0 W/m2 BKN
22:16 22.1 °F 17.7 °F 30.59 in Calm     83 % 0.00 in 0.0 W/m2 SCT
22:21 21.9 °F 17.5 °F 30.59 in Calm     83 % 0.00 in 0.0 W/m2 SCT
22:26 21.8 °F 17.4 °F 30.59 in Calm     83 % 0.00 in 0.0 W/m2 SCT
22:31 21.7 °F 17.6 °F 30.59 in Calm     84 % 0.00 in 0.0 W/m2 SCT
22:36 21.6 °F 17.5 °F 30.59 in Calm     84 % 0.00 in 0.0 W/m2 SCT
22:41 21.4 °F 17.0 °F 30.59 in Calm     83 % 0.00 in 0.0 W/m2 SCT
22:46 20.9 °F 16.5 °F 30.59 in Calm     83 % 0.00 in 0.0 W/m2 CLR
22:51 20.6 °F 16.3 °F 30.59 in Calm     83 % 0.00 in 0.0 W/m2 CLR
22:56 20.4 °F 16.1 °F 30.59 in Calm     83 % 0.00 in 0.0 W/m2 CLR
23:01 20.4 °F 16.3 °F 30.59 in Calm     84 % 0.00 in 0.0 W/m2 CLR
23:06 20.5 °F 16.4 °F 30.59 in Calm     84 % 0.00 in 0.0 W/m2 CLR
23:11 20.6 °F 16.8 °F 30.59 in Calm     85 % 0.00 in 0.0 W/m2 CLR
23:16 20.6 °F 16.5 °F 30.59 in Calm     84 % 0.00 in 0.0 W/m2 CLR
23:21 20.5 °F 16.4 °F 30.59 in NE 3.5 mph 3.5 mph 84 % 0.00 in 0.0 W/m2 CLR
23:26 20.3 °F 16.2 °F 30.59 in NE 3.5 mph 3.5 mph 84 % 0.00 in 0.0 W/m2 CLR
23:31 20.3 °F 16.5 °F 30.59 in NE 4.6 mph 4.6 mph 85 % 0.00 in 0.0 W/m2 CLR
23:36 20.3 °F 16.5 °F 30.59 in NE 3.5 mph 3.5 mph 85 % 0.00 in 0.0 W/m2 CLR
23:41 20.2 °F 16.4 °F 30.59 in NE 3.5 mph 3.5 mph 85 % 0.00 in 0.0 W/m2 CLR
23:46 20.1 °F 16.0 °F 30.59 in NE 3.5 mph 3.5 mph 84 % 0.00 in 0.0 W/m2 CLR
23:51 19.9 °F 15.8 °F 30.58 in NE 3.0 mph 3.0 mph 84 % 0.00 in 0.0 W/m2 CLR
23:56 19.7 °F 15.9 °F 30.58 in NE 3.5 mph 3.5 mph 85 % 0.00 in 0.0 W/m2 CLR
Bourbonnais, Illinois, USA
Compliments of Weather Underground - 3.5 mb